createdAt,value
2023-02-14T00:00:17.962Z,24.30
2023-02-14T00:02:48.331Z,23.15
2023-02-14T00:05:17.672Z,22.50
2023-02-14T00:07:46.349Z,20.20
2023-02-14T00:10:14.916Z,22.25
2023-02-14T00:12:43.676Z,20.98
2023-02-14T00:15:23.861Z,21.75
2023-02-14T00:17:59.814Z,19.45
2023-02-14T00:20:30.224Z,20.95
2023-02-14T00:23:00.877Z,21.08
2023-02-14T00:25:34.690Z,18.35
2023-02-14T00:28:03.538Z,19.73
2023-02-14T00:30:32.932Z,20.38
2023-02-14T00:33:03.434Z,20.98
2023-02-14T00:35:32.414Z,19.80
2023-02-14T00:38:00.912Z,19.98
2023-02-14T00:40:33.163Z,17.63
2023-02-14T00:43:01.953Z,19.35
2023-02-14T00:45:30.692Z,17.40
2023-02-14T00:47:59.200Z,20.85
2023-02-14T00:50:30.673Z,19.65
2023-02-14T00:52:59.376Z,20.63
2023-02-14T00:55:30.890Z,20.88
2023-02-14T00:58:02.743Z,19.40
2023-02-14T01:00:32.932Z,21.33
2023-02-14T01:03:04.042Z,19.58
2023-02-14T01:05:34.159Z,20.45
2023-02-14T01:08:06.855Z,20.40
2023-02-14T01:10:38.705Z,20.80
2023-02-14T01:13:07.829Z,19.85
2023-02-14T01:15:41.421Z,18.98
2023-02-14T01:18:13.292Z,19.33
2023-02-14T01:20:44.396Z,19.60
2023-02-14T01:23:18.957Z,20.42
2023-02-14T01:25:49.135Z,19.85
2023-02-14T01:28:18.249Z,19.45
2023-02-14T01:30:52.102Z,19.05
2023-02-14T01:33:23.925Z,18.80
2023-02-14T01:35:56.878Z,19.05
2023-02-14T01:38:28.384Z,19.70
2023-02-14T01:40:59.921Z,17.73
2023-02-14T01:43:31.478Z,18.10
2023-02-14T01:46:05.747Z,17.50
2023-02-14T01:48:34.771Z,18.15
2023-02-14T01:51:05.311Z,18.98
2023-02-14T01:53:41.009Z,19.48
2023-02-14T01:56:20.030Z,19.70
2023-02-14T01:58:56.093Z,17.35
2023-02-14T02:01:27.409Z,18.95
2023-02-14T02:04:07.377Z,19.25
2023-02-14T02:06:41.787Z,18.70
2023-02-14T02:09:17.783Z,17.30
2023-02-14T02:11:50.147Z,18.17
2023-02-14T02:14:34.448Z,19.45
2023-02-14T02:17:33.121Z,19.45
2023-02-14T02:20:30.481Z,17.15
2023-02-14T02:23:49.235Z,18.13
2023-02-14T02:27:18.468Z,18.05
2023-02-14T02:30:29.802Z,18.73
2023-02-14T02:33:45.973Z,17.17
2023-02-14T02:36:49.611Z,17.85
2023-02-14T02:39:39.251Z,16.67
2023-02-14T02:42:25.277Z,18.02
2023-02-14T02:45:11.254Z,17.83
2023-02-14T02:47:46.690Z,18.30
2023-02-14T02:50:48.499Z,19.27
2023-02-14T02:53:27.811Z,18.98
2023-02-14T02:56:19.690Z,18.50
2023-02-14T02:58:53.562Z,18.40
2023-02-14T03:01:26.874Z,17.67
2023-02-14T03:04:19.369Z,19.08
2023-02-14T03:06:49.653Z,17.67
2023-02-14T03:09:56.174Z,18.58
2023-02-14T03:13:15.661Z,17.88
2023-02-14T03:16:27.293Z,17.38
2023-02-14T03:19:40.961Z,18.45
2023-02-14T03:22:19.576Z,18.17
2023-02-14T03:24:58.070Z,18.55
2023-02-14T03:27:32.664Z,17.98
2023-02-14T03:30:12.963Z,17.50
2023-02-14T03:32:47.186Z,17.20
2023-02-14T03:35:28.271Z,19.27
2023-02-14T03:38:07.532Z,17.40
2023-02-14T03:40:43.970Z,17.13
2023-02-14T03:43:22.590Z,17.08
2023-02-14T03:45:56.812Z,16.52
2023-02-14T03:48:28.060Z,18.08
2023-02-14T03:51:00.993Z,17.77
2023-02-14T03:53:33.376Z,17.48
2023-02-14T03:56:12.475Z,19.10
2023-02-14T03:58:48.512Z,17.35
2023-02-14T04:01:24.990Z,18.92
2023-02-14T04:04:00.741Z,17.65
2023-02-14T04:06:30.032Z,17.17
2023-02-14T04:09:00.731Z,18.08
2023-02-14T04:11:35.699Z,17.35
2023-02-14T04:14:05.003Z,16.65
2023-02-14T04:16:55.090Z,17.17
2023-02-14T04:19:23.166Z,17.13
2023-02-14T04:21:52.821Z,18.15
2023-02-14T04:24:22.372Z,16.73
2023-02-14T04:27:11.182Z,17.90
2023-02-14T04:29:42.460Z,17.50
2023-02-14T04:32:18.234Z,18.50
2023-02-14T04:34:49.409Z,18.55
2023-02-14T04:37:20.789Z,19.63
2023-02-14T04:39:52.436Z,17.83
2023-02-14T04:42:22.790Z,17.55
2023-02-14T04:44:54.685Z,18.63
2023-02-14T04:47:23.720Z,19.27
2023-02-14T04:49:52.638Z,19.23
2023-02-14T04:52:24.193Z,18.58
2023-02-14T04:54:53.114Z,18.80
2023-02-14T04:57:27.110Z,17.58
2023-02-14T04:59:56.484Z,18.40
2023-02-14T05:02:25.891Z,19.52
2023-02-14T05:05:08.792Z,19.88
2023-02-14T05:07:39.810Z,18.60
2023-02-14T05:10:10.847Z,17.85
2023-02-14T05:12:46.007Z,19.58
2023-02-14T05:15:14.929Z,19.48
2023-02-14T05:17:48.408Z,18.48
2023-02-14T05:20:17.447Z,19.75
2023-02-14T05:22:46.700Z,19.88
2023-02-14T05:25:17.873Z,19.95
2023-02-14T05:27:48.724Z,18.20
2023-02-14T05:30:18.641Z,20.25
2023-02-14T05:32:48.244Z,19.52
2023-02-14T05:35:17.468Z,19.80
2023-02-14T05:37:49.389Z,18.48
2023-02-14T05:40:18.720Z,18.63
2023-02-14T05:42:51.957Z,18.92
2023-02-14T05:45:24.382Z,17.00
2023-02-14T05:47:53.057Z,17.05
2023-02-14T05:50:21.888Z,16.67
2023-02-14T05:52:50.347Z,18.35
2023-02-14T05:55:19.115Z,19.20
2023-02-14T05:57:48.958Z,19.65
2023-02-14T06:00:19.187Z,20.05
2023-02-14T06:02:50.515Z,19.55
2023-02-14T06:05:30.050Z,19.23
2023-02-14T06:07:58.673Z,19.27
2023-02-14T06:10:27.725Z,19.27
2023-02-14T06:13:00.600Z,20.67
2023-02-14T06:15:29.374Z,19.42
2023-02-14T06:17:58.987Z,19.33
2023-02-14T06:20:27.734Z,19.67
2023-02-14T06:22:59.050Z,20.02
2023-02-14T06:25:28.166Z,22.10
2023-02-14T06:28:00.199Z,20.65
2023-02-14T06:30:29.372Z,21.10
2023-02-14T06:32:57.962Z,20.73
2023-02-14T06:35:26.728Z,21.98
2023-02-14T06:37:55.053Z,21.02
2023-02-14T06:40:24.158Z,23.17
2023-02-14T06:42:52.560Z,23.20
2023-02-14T06:45:26.936Z,23.75
2023-02-14T06:48:00.189Z,24.08
2023-02-14T06:50:29.055Z,21.05
2023-02-14T06:53:00.556Z,21.63
2023-02-14T06:55:29.301Z,22.80
2023-02-14T06:57:57.535Z,22.50
2023-02-14T07:00:27.327Z,22.05
2023-02-14T07:02:55.682Z,23.70
2023-02-14T07:05:26.409Z,25.00
2023-02-14T07:07:54.651Z,27.00
2023-02-14T07:10:22.934Z,27.27
2023-02-14T07:12:51.455Z,25.98
2023-02-14T07:15:22.186Z,28.65
2023-02-14T07:17:52.437Z,29.13
2023-02-14T07:20:21.829Z,30.20
2023-02-14T07:22:50.445Z,30.52
2023-02-14T07:25:21.054Z,31.80
2023-02-14T07:27:49.406Z,32.58
2023-02-14T07:30:19.136Z,31.85
2023-02-14T07:32:47.942Z,33.08
2023-02-14T07:35:18.117Z,34.40
2023-02-14T07:37:46.875Z,33.45
2023-02-14T07:40:15.699Z,32.25
2023-02-14T07:42:44.792Z,33.85
2023-02-14T07:45:21.734Z,31.52
2023-02-14T07:47:53.043Z,31.67
2023-02-14T07:50:24.612Z,32.33
2023-02-14T07:52:53.396Z,33.80
2023-02-14T07:55:26.386Z,33.53
2023-02-14T07:57:54.758Z,32.85
2023-02-14T08:00:24.581Z,32.55
2023-02-14T08:02:53.206Z,32.72
2023-02-14T08:05:24.013Z,34.20
2023-02-14T08:07:52.598Z,32.28
2023-02-14T08:10:21.761Z,34.10
2023-02-14T08:13:03.653Z,33.28
2023-02-14T08:15:51.746Z,34.30
2023-02-14T08:18:23.346Z,33.95
2023-02-14T08:20:53.584Z,35.22
2023-02-14T08:23:23.131Z,33.80
2023-02-14T08:25:55.835Z,34.70
2023-02-14T08:28:24.937Z,35.40
2023-02-14T08:30:55.442Z,35.15
2023-02-14T09:34:12.533Z,43.15
2023-02-14T09:37:01.772Z,42.30
2023-02-14T09:39:33.734Z,41.63
2023-02-14T09:42:43.750Z,42.72
2023-02-14T09:45:15.772Z,43.58
2023-02-14T09:47:50.794Z,42.88
2023-02-14T09:50:34.803Z,41.60
2023-02-14T09:53:08.399Z,41.47
2023-02-14T09:55:48.180Z,43.63
2023-02-14T09:58:25.731Z,41.67
2023-02-14T10:01:05.912Z,41.25
2023-02-14T10:04:18.210Z,40.50
2023-02-14T10:07:00.524Z,39.53
2023-02-14T10:09:58.606Z,37.85
2023-02-14T10:12:35.488Z,40.33
2023-02-14T10:15:15.980Z,38.42
2023-02-14T10:17:48.307Z,37.55
2023-02-14T10:20:24.376Z,38.72
2023-02-14T10:23:03.880Z,38.00
2023-02-14T10:25:42.612Z,37.15
2023-02-14T10:28:17.128Z,34.03
2023-02-14T10:30:58.540Z,35.00
2023-02-14T10:33:36.216Z,33.85
2023-02-14T10:36:15.181Z,32.47
2023-02-14T10:38:53.155Z,32.10
2023-02-14T10:41:35.318Z,32.35
2023-02-14T10:44:22.385Z,32.03
2023-02-14T10:46:59.663Z,32.70
2023-02-14T10:49:47.910Z,33.17
2023-02-14T10:52:35.174Z,31.15
2023-02-14T10:55:26.582Z,32.05
2023-02-14T10:58:03.597Z,31.10
2023-02-14T11:00:36.442Z,32.35
2023-02-14T11:03:11.089Z,31.45
2023-02-14T11:05:46.691Z,32.13
2023-02-14T11:08:28.765Z,32.53
2023-02-14T11:11:17.673Z,31.10
2023-02-14T11:13:47.385Z,32.50
2023-02-14T11:16:31.359Z,32.50
2023-02-14T11:19:24.091Z,31.42
2023-02-14T11:21:56.410Z,31.95
2023-02-14T11:24:33.212Z,30.23
2023-02-14T11:27:07.539Z,31.63
2023-02-14T11:29:48.188Z,30.48
2023-02-14T11:32:24.047Z,31.65
2023-02-14T11:35:00.709Z,32.22
2023-02-14T11:37:34.266Z,32.70
2023-02-14T11:40:04.442Z,31.98
2023-02-14T11:42:45.381Z,32.72
2023-02-14T11:45:32.674Z,29.88
2023-02-14T11:48:31.450Z,30.92
2023-02-14T11:51:11.055Z,31.95
2023-02-14T11:53:49.909Z,31.75
2023-02-14T11:56:24.532Z,32.63
2023-02-14T11:59:04.073Z,33.92
2023-02-14T12:01:36.322Z,32.90
2023-02-14T12:04:11.523Z,33.10
2023-02-14T12:06:40.700Z,32.30
2023-02-14T12:09:19.963Z,31.25
2023-02-14T12:11:58.101Z,31.25
2023-02-14T12:14:34.346Z,32.20
2023-02-14T12:17:13.581Z,31.73
2023-02-14T12:19:49.103Z,31.75
2023-02-14T12:22:22.588Z,32.80
2023-02-14T12:25:00.941Z,30.90
2023-02-14T12:27:40.342Z,31.80
2023-02-14T12:30:18.204Z,32.28
2023-02-14T12:32:51.429Z,32.08
2023-02-14T12:35:38.208Z,30.73
2023-02-14T12:38:14.366Z,31.58
2023-02-14T12:41:02.891Z,31.10
2023-02-14T12:43:50.924Z,33.03
2023-02-14T12:46:52.746Z,32.22
2023-02-14T12:50:15.551Z,31.15
2023-02-14T12:53:12.735Z,31.88
2023-02-14T12:56:00.577Z,31.55
2023-02-14T12:59:07.867Z,29.85
2023-02-14T13:02:15.475Z,31.33
2023-02-14T13:05:01.883Z,28.92
2023-02-14T13:07:58.944Z,29.25
2023-02-14T13:10:45.647Z,28.65
2023-02-14T13:13:29.071Z,30.83
2023-02-14T13:16:09.849Z,31.40
2023-02-14T13:18:51.371Z,29.98
2023-02-14T13:21:25.468Z,31.88
2023-02-14T13:23:59.803Z,32.45
2023-02-14T13:26:34.108Z,30.23
2023-02-14T13:29:15.027Z,31.05
2023-02-14T13:31:47.660Z,31.50
2023-02-14T13:34:27.197Z,32.45
2023-02-14T13:37:03.677Z,32.58
2023-02-14T13:39:38.662Z,32.30
2023-02-14T13:42:08.609Z,34.67
2023-02-14T13:44:49.199Z,33.78
2023-02-14T13:47:20.778Z,32.80
2023-02-14T13:49:53.072Z,33.28
2023-02-14T13:52:44.231Z,32.28
2023-02-14T13:55:21.544Z,33.95
2023-02-14T13:58:03.509Z,34.10
2023-02-14T14:00:42.778Z,32.95
2023-02-14T14:03:16.576Z,31.80
2023-02-14T14:06:03.558Z,31.65
2023-02-14T14:08:50.532Z,33.72
2023-02-14T14:12:01.832Z,33.72
2023-02-14T14:14:44.688Z,31.15
2023-02-14T14:17:29.008Z,33.70
2023-02-14T14:19:58.145Z,32.75
2023-02-14T14:22:33.633Z,33.65
2023-02-14T14:28:45.392Z,33.05
2023-02-14T14:31:15.456Z,32.90
2023-02-14T14:33:44.658Z,33.20
2023-02-14T14:36:24.517Z,34.35
2023-02-14T14:38:58.030Z,33.97
2023-02-14T14:41:32.023Z,33.17
2023-02-14T14:44:01.444Z,33.85
2023-02-14T14:46:33.705Z,36.08
2023-02-14T14:49:06.285Z,34.92
2023-02-14T14:51:37.501Z,34.72
2023-02-14T14:54:15.212Z,34.28
2023-02-14T14:56:53.358Z,33.60
2023-02-14T14:59:31.348Z,33.97
2023-02-14T15:01:59.805Z,34.67
2023-02-14T15:04:30.404Z,36.45
2023-02-14T15:07:18.752Z,35.75
2023-02-14T15:09:48.612Z,34.28
2023-02-14T15:12:39.797Z,34.47
2023-02-14T15:15:12.920Z,33.55
2023-02-14T15:17:43.391Z,33.28
2023-02-14T15:20:18.992Z,34.45
2023-02-14T15:22:49.404Z,34.20
2023-02-14T15:25:22.453Z,35.35
2023-02-14T15:27:51.745Z,33.67
2023-02-14T15:30:29.182Z,35.30
2023-02-14T15:32:58.642Z,33.92
2023-02-14T15:35:31.164Z,34.03
2023-02-14T15:38:04.046Z,34.03
2023-02-14T15:40:38.773Z,33.03
2023-02-14T15:43:22.017Z,35.15
2023-02-14T15:45:52.655Z,32.45
2023-02-14T15:48:28.633Z,32.72
2023-02-14T15:50:59.938Z,34.83
2023-02-14T15:53:41.444Z,34.75
2023-02-14T15:56:21.235Z,32.90
2023-02-14T15:58:50.602Z,35.70
2023-02-14T16:01:22.429Z,35.50
2023-02-14T16:03:57.174Z,34.97
2023-02-14T16:06:38.172Z,34.20
2023-02-14T16:09:23.815Z,35.05
2023-02-14T16:11:55.516Z,35.55
2023-02-14T16:14:36.241Z,35.42
2023-02-14T16:17:07.454Z,35.45
2023-02-14T16:19:39.372Z,35.40
2023-02-14T16:22:10.187Z,37.88
2023-02-14T16:24:38.491Z,37.90
2023-02-14T16:27:10.143Z,37.00
2023-02-14T16:29:41.217Z,37.38
2023-02-14T16:32:18.166Z,37.63
2023-02-14T16:34:48.280Z,39.85
2023-02-14T16:37:33.355Z,38.45
2023-02-14T16:40:02.970Z,39.15
2023-02-14T16:42:32.766Z,37.97
2023-02-14T16:45:00.945Z,36.75
2023-02-14T16:47:29.209Z,39.03
2023-02-14T16:50:00.615Z,39.92
2023-02-14T16:52:30.824Z,39.97
2023-02-14T16:54:59.185Z,40.58
2023-02-14T16:57:34.606Z,39.33
2023-02-14T17:00:05.380Z,39.55
2023-02-14T17:02:35.458Z,40.38
2023-02-14T17:05:03.870Z,39.13
2023-02-14T17:07:34.375Z,38.47
2023-02-14T17:10:08.581Z,40.60
2023-02-14T17:12:44.117Z,39.60
2023-02-14T17:15:21.477Z,39.05
2023-02-14T17:17:51.730Z,40.33
2023-02-14T17:20:21.969Z,39.90
2023-02-14T17:22:50.306Z,40.90
2023-02-14T17:25:19.049Z,41.78
2023-02-14T17:27:49.468Z,41.90
2023-02-14T17:30:18.183Z,39.40
2023-02-14T17:32:46.650Z,41.90
2023-02-14T17:35:15.071Z,42.58
2023-02-14T17:37:43.809Z,41.55
2023-02-14T17:40:16.154Z,41.50
2023-02-14T17:42:51.140Z,42.60
2023-02-14T17:45:22.342Z,42.45
2023-02-14T17:47:50.689Z,39.83
2023-02-14T17:50:21.716Z,39.75
2023-02-14T17:52:54.569Z,40.95
2023-02-14T17:55:40.869Z,40.45
2023-02-14T17:58:09.184Z,41.53
2023-02-14T18:00:38.907Z,40.50
2023-02-14T18:03:07.668Z,41.08
2023-02-14T18:05:40.595Z,40.10
2023-02-14T18:08:09.013Z,46.95
2023-02-14T18:10:39.252Z,43.53
2023-02-14T18:13:10.421Z,42.88
2023-02-14T18:15:41.262Z,55.40
2023-02-14T18:18:11.528Z,52.72
2023-02-14T18:20:39.982Z,50.65
2023-02-14T18:23:16.409Z,47.90
2023-02-14T18:25:56.492Z,43.50
2023-02-14T18:28:27.757Z,43.45
2023-02-14T18:31:05.082Z,42.47
2023-02-14T18:33:34.401Z,41.13
2023-02-14T18:36:03.186Z,41.65
2023-02-14T18:38:31.657Z,39.95
2023-02-14T18:41:04.431Z,42.45
2023-02-14T18:43:33.147Z,41.15
2023-02-14T18:46:07.630Z,42.28
2023-02-14T18:48:37.366Z,43.17
2023-02-14T18:51:09.768Z,43.60
2023-02-14T18:53:39.210Z,45.03
2023-02-14T18:56:11.543Z,44.90
2023-02-14T18:58:43.577Z,43.85
2023-02-14T19:01:16.017Z,42.17
2023-02-14T19:03:45.752Z,44.22
2023-02-14T19:06:14.727Z,41.45
2023-02-14T19:08:43.421Z,41.90
2023-02-14T19:11:19.922Z,44.35
2023-02-14T19:13:51.065Z,44.35
2023-02-14T19:16:25.662Z,44.20
2023-02-14T19:18:54.626Z,45.40
2023-02-14T19:21:25.232Z,43.92
2023-02-14T19:23:59.489Z,44.85
2023-02-14T19:26:32.278Z,46.13
2023-02-14T19:29:03.798Z,43.22
2023-02-14T19:31:37.569Z,45.95
2023-02-14T19:34:08.005Z,43.40
2023-02-14T19:36:37.624Z,46.58
2023-02-14T19:39:06.542Z,44.50
2023-02-14T19:41:36.093Z,41.95
2023-02-14T19:44:06.959Z,44.63
2023-02-14T19:46:38.221Z,44.60
2023-02-14T19:49:07.023Z,45.90
2023-02-14T19:51:37.257Z,45.83
2023-02-14T19:54:12.710Z,43.10
2023-02-14T19:56:44.194Z,45.70
2023-02-14T20:01:54.441Z,47.03
2023-02-14T20:04:27.409Z,44.95
2023-02-14T20:06:59.815Z,48.10
2023-02-14T20:09:31.613Z,45.00
2023-02-14T20:12:01.644Z,43.17
2023-02-14T20:14:40.906Z,43.13
2023-02-14T20:17:18.037Z,42.67
2023-02-14T20:19:46.617Z,43.05
2023-02-14T20:22:15.301Z,44.85
2023-02-14T20:24:43.558Z,41.95
2023-02-14T20:27:14.886Z,42.83
2023-02-14T20:29:44.957Z,39.83
2023-02-14T20:32:15.782Z,41.75
2023-02-14T20:34:45.596Z,39.85
2023-02-14T20:37:16.003Z,42.22
2023-02-14T20:39:44.334Z,41.55
2023-02-14T20:42:12.581Z,42.42
2023-02-14T20:44:41.601Z,43.30
2023-02-14T20:47:12.843Z,48.42
2023-02-14T20:49:44.677Z,46.00
2023-02-14T20:52:14.563Z,44.33
2023-02-14T20:54:42.939Z,44.03
2023-02-14T20:57:11.226Z,42.60
2023-02-14T20:59:44.699Z,45.40
2023-02-14T21:02:13.172Z,43.22
2023-02-14T21:04:41.619Z,42.72
2023-02-14T21:07:10.509Z,43.50
2023-02-14T21:09:40.155Z,44.85
2023-02-14T21:12:08.911Z,43.25
2023-02-14T21:14:37.293Z,43.47
2023-02-14T21:17:05.738Z,44.00
2023-02-14T21:19:34.128Z,43.88
2023-02-14T21:22:02.363Z,42.03
2023-02-14T21:24:30.668Z,41.03
2023-02-14T21:27:01.759Z,43.38
2023-02-14T21:29:29.993Z,42.80
2023-02-14T21:31:58.304Z,40.85
2023-02-14T21:34:27.823Z,41.83
2023-02-14T21:36:56.455Z,43.00
2023-02-14T21:39:27.514Z,39.95
2023-02-14T21:41:56.375Z,43.97
2023-02-14T21:44:43.360Z,46.25
2023-02-14T21:47:14.441Z,46.85
2023-02-14T21:50:00.148Z,44.92
2023-02-14T21:52:30.257Z,42.75
2023-02-14T21:54:58.537Z,42.13
2023-02-14T21:57:27.112Z,42.22
2023-02-14T21:59:59.304Z,42.03
2023-02-14T22:02:28.103Z,41.47
2023-02-14T22:04:56.673Z,43.97
2023-02-14T22:07:25.234Z,41.85
2023-02-14T22:09:53.556Z,38.10
2023-02-14T22:12:22.335Z,42.47
2023-02-14T22:14:50.532Z,35.55
2023-02-14T22:17:20.432Z,33.80
2023-02-14T22:19:49.253Z,34.65
2023-02-14T22:22:17.805Z,37.67
2023-02-14T22:24:46.384Z,39.38
2023-02-14T22:27:16.110Z,38.13
2023-02-14T22:29:44.502Z,36.05
2023-02-14T22:32:13.247Z,36.45
2023-02-14T22:34:42.888Z,35.80
2023-02-14T22:37:11.133Z,34.65
2023-02-14T22:39:39.485Z,35.03
2023-02-14T22:42:07.745Z,35.80
2023-02-14T22:44:36.382Z,34.92
2023-02-14T22:47:04.754Z,35.42
2023-02-14T22:49:33.218Z,36.03
2023-02-14T22:52:03.022Z,33.38
2023-02-14T22:54:31.576Z,35.65
2023-02-14T22:57:00.393Z,37.47
2023-02-14T22:59:31.648Z,34.55
2023-02-14T23:02:01.507Z,36.10
2023-02-14T23:04:30.793Z,36.67
2023-02-14T23:06:59.439Z,33.28
2023-02-14T23:09:29.770Z,38.15
2023-02-14T23:11:57.993Z,34.67
2023-02-14T23:14:58.268Z,32.38
2023-02-14T23:17:44.167Z,37.50
2023-02-14T23:20:33.323Z,41.67
2023-02-14T23:23:01.629Z,38.28
2023-02-14T23:25:31.349Z,40.15
2023-02-14T23:27:59.777Z,37.63
2023-02-14T23:30:28.473Z,42.83
2023-02-14T23:32:59.376Z,38.17
2023-02-14T23:35:28.128Z,41.53
2023-02-14T23:37:57.671Z,38.60
2023-02-14T23:40:25.855Z,38.15
2023-02-14T23:42:59.502Z,36.15
2023-02-14T23:45:37.032Z,37.22
2023-02-14T23:48:07.036Z,36.90
2023-02-14T23:50:35.568Z,38.10
2023-02-14T23:53:03.851Z,39.10
2023-02-14T23:55:32.350Z,39.38
2023-02-14T23:58:02.405Z,37.90
